Time;durP1;ratioP1;P1;durP2;ratioP2;P2;SDS_P1;SDS_P2;PMS_P1;PMS_P2;Temp;Humidity;BMP_temperature;BMP_pressure;BME280_temperature;BME280_humidity;BME280_pressure;Samples;Min_cycle;Max_cycle;Signal;HPM_P1;HPM_P2
2022/08/07 00:01:31;;;;;;;0.20;0.10;;;;;;;;;;6284217;22;20047;-85
2022/08/07 00:04:43;;;;;;;1.10;0.32;;;;;;;;;;6293415;22;20100;-87
2022/08/07 00:20:40;;;;;;;0.20;0.10;;;;;;;;;;6234940;23;20112;-86
2022/08/07 00:24:04;;;;;;;0.20;0.10;;;;;;;;;;6115343;23;20097;-86
2022/08/07 00:27:09;;;;;;;;;;;;;;;;;;;;;
2022/08/07 00:29:51;;;;;;;0.20;0.10;;;;;;;;;;6090073;23;20018;-86
2022/08/07 00:33:27;;;;;;;0.20;0.10;;;;;;;;;;6027882;23;20019;-86
2022/08/07 00:36:47;;;;;;;0.20;0.10;;;;;;;;;;6007495;23;20027;-87
2022/08/07 00:42:14;;;;;;;0.20;0.10;;;;;;;;;;6081274;23;20058;-86
2022/08/07 00:45:15;;;;;;;0.20;0.10;;;;;;;;;;6074480;23;20041;-87
2022/08/07 00:48:01;;;;;;;0.20;0.10;;;;;;;;;;6099295;23;20678;-87
2022/08/07 00:50:44;;;;;;;0.20;0.10;;;;;;;;;;6156232;23;20020;-87
2022/08/07 00:53:37;;;;;;;0.20;0.10;;;;;;;;;;6153138;22;20505;-87
2022/08/07 00:56:15;;;;;;;0.20;0.17;;;;;;;;;;6149351;23;20056;-86
2022/08/07 00:58:55;;;;;;;0.20;0.10;;;;;;;;;;6179447;22;20016;-87
2022/08/07 01:01:49;;;;;;;0.20;0.10;;;;;;;;;;6286443;22;20077;-87
2022/08/07 01:04:33;;;;;;;0.20;0.10;;;;;;;;;;6229261;22;20020;-86
2022/08/07 01:07:31;;;;;;;0.20;0.10;;;;;;;;;;6179885;23;20013;-85
2022/08/07 01:10:03;;;;;;;0.20;0.10;;;;;;;;;;6223508;23;20016;-86
2022/08/07 01:16:15;;;;;;;;;;;;;;;;;;;;;
2022/08/07 01:19:11;;;;;;;0.20;0.10;;;;;;;;;;6232903;23;20470;-86
2022/08/07 01:25:02;;;;;;;0.20;0.10;;;;;;;;;;6224419;23;20039;-86
2022/08/07 01:27:44;;;;;;;0.20;0.10;;;;;;;;;;6211432;23;20012;-85
2022/08/07 01:34:13;;;;;;;0.20;0.10;;;;;;;;;;6172512;23;20020;-86
2022/08/07 01:59:15;;;;;;;;;;;;;;;;;;;;;
2022/08/07 02:02:53;;;;;;;0.20;0.10;;;;;;;;;;5881428;24;20058;-86
2022/08/07 02:09:25;;;;;;;0.20;0.10;;;;;;;;;;5807882;24;20015;-87
2022/08/07 02:12:33;;;;;;;0.20;0.10;;;;;;;;;;5842284;24;20026;-87
2022/08/07 02:25:21;;;;;;;;;;;;;;;;;;;;;
2022/08/07 02:27:58;;;;;;;0.20;0.08;;;;;;;;;;6243782;22;20019;-87
2022/08/07 02:30:25;;;;;;;0.20;0.10;;;;;;;;;;6176486;23;20059;-86
2022/08/07 02:32:52;;;;;;;0.20;0.10;;;;;;;;;;6234302;22;20014;-87
2022/08/07 02:35:48;;;;;;;0.20;0.10;;;;;;;;;;6308995;22;20014;-86
2022/08/07 02:39:01;;;;;;;0.20;0.10;;;;;;;;;;6306293;22;20017;-85
2022/08/07 02:41:36;;;;;;;0.20;0.10;;;;;;;;;;6285992;22;20010;-87
2022/08/07 02:44:11;;;;;;;0.20;0.10;;;;;;;;;;6358594;22;20104;-86
2022/08/07 02:46:49;;;;;;;0.20;0.10;;;;;;;;;;6281162;22;20243;-85
2022/08/07 02:49:15;;;;;;;0.20;0.00;;;;;;;;;;6307658;22;20076;-86
2022/08/07 02:51:47;;;;;;;0.20;0.10;;;;;;;;;;6306223;22;20093;-87
2022/08/07 02:54:20;;;;;;;0.20;0.10;;;;;;;;;;6306059;22;20095;-86
2022/08/07 02:56:49;;;;;;;0.20;0.10;;;;;;;;;;6306965;22;20071;-86
2022/08/07 02:59:35;;;;;;;0.20;0.10;;;;;;;;;;6331164;22;20016;-87
2022/08/07 03:02:05;;;;;;;0.20;0.10;;;;;;;;;;6306523;22;20067;-87
2022/08/07 03:04:38;;;;;;;0.20;0.10;;;;;;;;;;6300149;22;20014;-86
2022/08/07 03:07:07;;;;;;;0.20;0.10;;;;;;;;;;6302372;22;20266;-84
2022/08/07 03:10:01;;;;;;;;;;;;;;;;;;;;;
2022/08/07 03:22:32;;;;;;;;;;;;;;;;;;;;;
2022/08/07 03:28:52;;;;;;;0.20;0.10;;;;;;;;;;5995706;23;20508;-85
2022/08/07 03:31:25;;;;;;;0.20;0.10;;;;;;;;;;5927421;23;20016;-87
2022/08/07 03:33:57;;;;;;;0.20;0.10;;;;;;;;;;5948340;23;20024;-86
2022/08/07 03:36:43;;;;;;;;;;;;;;;;;;;;;
2022/08/07 03:46:12;;;;;;;;;;;;;;;;;;;;;
2022/08/07 03:48:44;;;;;;;0.20;0.20;;;;;;;;;;5970882;23;20444;-86
2022/08/07 03:51:22;;;;;;;0.20;0.10;;;;;;;;;;5971234;23;20488;-86
2022/08/07 03:54:04;;;;;;;0.35;0.15;;;;;;;;;;6245902;22;20020;-86
2022/08/07 03:56:35;;;;;;;0.20;0.10;;;;;;;;;;6299078;22;20014;-86
2022/08/07 03:59:04;;;;;;;0.20;0.10;;;;;;;;;;6308663;22;20098;-86
2022/08/07 04:01:38;;;;;;;0.20;0.10;;;;;;;;;;6360215;22;20014;-86
2022/08/07 04:04:04;;;;;;;0.20;0.10;;;;;;;;;;6333524;22;20014;-86
2022/08/07 04:06:32;;;;;;;0.20;0.10;;;;;;;;;;6308063;22;20010;-87
2022/08/07 04:09:02;;;;;;;0.20;0.10;;;;;;;;;;6360627;22;20090;-86
2022/08/07 04:11:31;;;;;;;0.20;0.10;;;;;;;;;;6283845;22;20007;-86
2022/08/07 04:14:05;;;;;;;0.20;0.10;;;;;;;;;;6307302;22;20480;-85
2022/08/07 04:17:09;;;;;;;0.20;0.10;;;;;;;;;;6306950;22;20450;-86
2022/08/07 04:19:51;;;;;;;0.20;0.10;;;;;;;;;;6359903;22;20109;-86
2022/08/07 04:22:49;;;;;;;0.30;0.20;;;;;;;;;;6360338;22;20014;-86
2022/08/07 04:25:19;;;;;;;0.20;0.10;;;;;;;;;;6305716;22;20097;-85
2022/08/07 04:27:48;;;;;;;0.20;0.10;;;;;;;;;;6358565;22;20017;-86
2022/08/07 04:30:14;;;;;;;0.20;0.10;;;;;;;;;;6306319;22;20017;-85
2022/08/07 04:32:43;;;;;;;0.20;0.10;;;;;;;;;;6307093;22;20027;-87
2022/08/07 04:35:09;;;;;;;0.20;0.10;;;;;;;;;;6306148;22;20019;-86
2022/08/07 04:37:38;;;;;;;0.20;0.10;;;;;;;;;;6291376;22;20015;-86
2022/08/07 04:40:16;;;;;;;0.20;0.10;;;;;;;;;;6358543;22;20006;-86
2022/08/07 04:42:50;;;;;;;0.20;0.10;;;;;;;;;;6307687;22;20400;-86
2022/08/07 04:45:23;;;;;;;0.20;0.10;;;;;;;;;;6307183;22;20018;-86
2022/08/07 04:47:51;;;;;;;0.20;0.10;;;;;;;;;;6308022;22;20022;-86
2022/08/07 04:50:25;;;;;;;0.20;0.10;;;;;;;;;;6332623;22;20006;-86
2022/08/07 04:53:11;;;;;;;0.20;0.10;;;;;;;;;;6308481;22;20392;-86
2022/08/07 04:55:46;;;;;;;0.20;0.10;;;;;;;;;;6304634;22;20018;-86
2022/08/07 04:58:22;;;;;;;0.20;0.05;;;;;;;;;;6306147;22;20011;-86
2022/08/07 05:01:24;;;;;;;0.20;0.10;;;;;;;;;;6302477;22;20018;-86
2022/08/07 05:04:10;;;;;;;0.20;0.10;;;;;;;;;;6173548;23;20521;-86
2022/08/07 05:06:41;;;;;;;0.20;0.10;;;;;;;;;;6319666;22;20050;-85
2022/08/07 05:09:20;;;;;;;0.20;0.10;;;;;;;;;;6303903;22;20053;-86
2022/08/07 05:11:51;;;;;;;0.20;0.10;;;;;;;;;;6303797;22;20021;-87
2022/08/07 05:14:49;;;;;;;0.20;0.10;;;;;;;;;;6305366;22;20089;-87
2022/08/07 05:17:30;;;;;;;0.20;0.10;;;;;;;;;;6288364;22;20021;-86
2022/08/07 05:20:08;;;;;;;0.20;0.10;;;;;;;;;;6333367;22;20021;-86
2022/08/07 05:22:52;;;;;;;0.20;0.10;;;;;;;;;;6307636;22;20049;-85
2022/08/07 05:25:22;;;;;;;0.20;0.10;;;;;;;;;;6285952;22;20093;-85
2022/08/07 05:27:52;;;;;;;0.20;0.10;;;;;;;;;;6361950;22;20018;-86
2022/08/07 05:30:40;;;;;;;0.20;0.10;;;;;;;;;;6361492;22;20048;-86
2022/08/07 05:33:12;;;;;;;0.20;0.10;;;;;;;;;;6306503;22;20450;-85
2022/08/07 05:36:03;;;;;;;0.20;0.10;;;;;;;;;;6306800;22;20017;-86
2022/08/07 05:41:48;;;;;;;0.20;0.10;;;;;;;;;;6261081;22;20049;-86
2022/08/07 05:44:25;;;;;;;0.20;0.10;;;;;;;;;;6241765;22;20030;-85
2022/08/07 05:46:57;;;;;;;0.20;0.10;;;;;;;;;;6241366;22;20532;-86
2022/08/07 05:52:27;;;;;;;0.20;0.10;;;;;;;;;;6262857;22;20058;-85
2022/08/07 05:54:57;;;;;;;0.20;0.10;;;;;;;;;;6294119;22;20367;-85
2022/08/07 05:57:43;;;;;;;0.20;0.10;;;;;;;;;;6236302;22;20022;-84
2022/08/07 06:00:35;;;;;;;0.20;0.10;;;;;;;;;;6259717;22;20729;-85
2022/08/07 06:03:08;;;;;;;0.20;0.10;;;;;;;;;;6197795;22;20017;-92
2022/08/07 06:05:47;;;;;;;0.20;0.10;;;;;;;;;;6162644;23;20019;-90
2022/08/07 06:08:15;;;;;;;0.20;0.10;;;;;;;;;;6174267;22;20060;-90
2022/08/07 06:10:51;;;;;;;0.20;0.10;;;;;;;;;;6190077;23;20368;-90
2022/08/07 06:13:17;;;;;;;0.20;0.03;;;;;;;;;;6126249;23;20050;-88
2022/08/07 06:15:44;;;;;;;0.20;0.10;;;;;;;;;;6125327;23;20656;-89
2022/08/07 06:18:13;;;;;;;0.20;0.10;;;;;;;;;;6124726;23;20048;-88
2022/08/07 06:20:43;;;;;;;0.20;0.20;;;;;;;;;;6122825;23;20021;-89
2022/08/07 06:23:09;;;;;;;0.20;0.10;;;;;;;;;;6123778;23;20025;-89
2022/08/07 06:25:35;;;;;;;0.20;0.10;;;;;;;;;;6124564;23;20024;-89
2022/08/07 06:28:06;;;;;;;0.20;0.10;;;;;;;;;;6124352;23;20024;-90
2022/08/07 06:30:33;;;;;;;0.20;0.10;;;;;;;;;;6124602;23;20013;-88
2022/08/07 06:32:59;;;;;;;0.20;0.10;;;;;;;;;;6123631;23;20066;-91
2022/08/07 06:35:29;;;;;;;0.20;0.10;;;;;;;;;;6123465;23;20017;-88
2022/08/07 06:37:57;;;;;;;0.20;0.10;;;;;;;;;;6124060;23;20024;-87
2022/08/07 06:40:23;;;;;;;0.20;0.10;;;;;;;;;;6123669;23;20531;-90
2022/08/07 06:42:50;;;;;;;0.20;0.10;;;;;;;;;;6174781;22;20021;-89
2022/08/07 06:45:18;;;;;;;0.20;0.10;;;;;;;;;;6125494;23;20110;-88
2022/08/07 06:47:45;;;;;;;0.20;0.10;;;;;;;;;;6122495;23;20017;-87
2022/08/07 06:50:11;;;;;;;0.20;0.10;;;;;;;;;;6171927;22;20013;-88
2022/08/07 06:52:41;;;;;;;0.20;0.10;;;;;;;;;;6123366;23;20021;-88
2022/08/07 06:55:13;;;;;;;0.20;0.10;;;;;;;;;;6173883;23;20136;-88
2022/08/07 06:57:43;;;;;;;0.20;0.10;;;;;;;;;;6122134;23;20690;-87
2022/08/07 07:00:09;;;;;;;0.20;0.10;;;;;;;;;;6123755;23;20045;-90
2022/08/07 07:02:36;;;;;;;0.20;0.10;;;;;;;;;;6123379;23;20090;-90
2022/08/07 07:05:03;;;;;;;0.20;0.10;;;;;;;;;;6122121;23;20021;-88
2022/08/07 07:07:29;;;;;;;0.20;0.10;;;;;;;;;;6122228;23;20530;-90
2022/08/07 07:10:03;;;;;;;0.20;0.10;;;;;;;;;;6122626;23;20013;-90
2022/08/07 07:12:34;;;;;;;0.20;0.10;;;;;;;;;;6123317;23;20025;-88
2022/08/07 07:15:04;;;;;;;0.20;0.10;;;;;;;;;;6124379;23;20009;-89
2022/08/07 07:17:33;;;;;;;0.20;0.10;;;;;;;;;;6172464;22;20055;-89
2022/08/07 07:20:02;;;;;;;0.20;0.10;;;;;;;;;;6122201;23;20025;-86
2022/08/07 07:22:31;;;;;;;0.20;0.10;;;;;;;;;;6120391;23;20048;-87
2022/08/07 07:24:58;;;;;;;0.20;0.10;;;;;;;;;;6123155;23;20014;-89
2022/08/07 07:27:27;;;;;;;0.20;0.10;;;;;;;;;;6125092;23;20074;-89
2022/08/07 07:29:58;;;;;;;0.20;0.10;;;;;;;;;;6124024;23;20096;-88
2022/08/07 07:32:24;;;;;;;0.20;0.10;;;;;;;;;;6123230;23;20423;-88
2022/08/07 07:35:07;;;;;;;0.20;0.10;;;;;;;;;;6126388;23;20021;-89
2022/08/07 07:37:34;;;;;;;0.20;0.10;;;;;;;;;;6124150;23;20013;-89
2022/08/07 07:40:02;;;;;;;0.20;0.10;;;;;;;;;;6123936;23;20431;-89
2022/08/07 07:42:33;;;;;;;0.20;0.10;;;;;;;;;;6124867;23;20202;-88
2022/08/07 07:45:12;;;;;;;0.20;0.10;;;;;;;;;;6122990;23;20021;-90
2022/08/07 07:47:52;;;;;;;0.20;0.10;;;;;;;;;;6126835;23;20024;-89
2022/08/07 07:50:22;;;;;;;0.20;0.10;;;;;;;;;;6123313;23;20017;-88
2022/08/07 07:52:48;;;;;;;0.20;0.10;;;;;;;;;;6120575;23;20028;-85
2022/08/07 07:55:17;;;;;;;0.20;0.10;;;;;;;;;;6123743;23;20020;-87
2022/08/07 07:57:44;;;;;;;0.20;0.10;;;;;;;;;;6121488;23;20087;-85
2022/08/07 08:00:11;;;;;;;0.20;0.10;;;;;;;;;;6123297;23;20739;-89
2022/08/07 08:02:37;;;;;;;0.20;0.10;;;;;;;;;;6123285;23;20485;-87
2022/08/07 08:05:34;;;;;;;;;;;;;;;;;;;;;
2022/08/07 08:14:17;;;;;;;;;;;;;;;;;;6236161;23;20019;-88
2022/08/07 08:16:46;;;;;;;0.20;0.10;;;;;;;;;;6209873;23;19947;-88
2022/08/07 08:19:34;;;;;;;0.20;0.10;;;;;;;;;;6161232;23;20051;-89
2022/08/07 08:34:06;;;;;;;0.20;0.10;;;;;;;;;;6153489;22;20031;-88
2022/08/07 08:37:20;;;;;;;;;;;;;;;;;;;;;
2022/08/07 08:40:06;;;;;;;0.20;0.10;;;;;;;;;;6165039;23;20017;-86
2022/08/07 08:42:49;;;;;;;0.20;0.10;;;;;;;;;;6171484;22;20017;-85
2022/08/07 09:28:11;;;;;;;0.20;0.10;;;;;;;;;;6187453;22;20029;-85
2022/08/07 09:41:19;;;;;;;0.20;0.10;;;;;;;;;;6170248;22;20029;-87
2022/08/07 09:47:06;;;;;;;0.20;0.10;;;;;;;;;;6111301;23;20022;-88
2022/08/07 09:49:42;;;;;;;0.20;0.10;;;;;;;;;;6134718;22;20023;-84
2022/08/07 09:52:08;;;;;;;0.20;0.10;;;;;;;;;;6178482;23;20104;-85
2022/08/07 09:54:44;;;;;;;0.20;0.10;;;;;;;;;;6146691;22;20028;-86
2022/08/07 09:57:21;;;;;;;0.20;0.10;;;;;;;;;;6278775;22;20017;-87
2022/08/07 10:00:10;;;;;;;0.20;0.10;;;;;;;;;;6157302;23;20024;-84
2022/08/07 10:02:49;;;;;;;0.20;0.10;;;;;;;;;;6144402;22;20017;-85
2022/08/07 10:05:33;;;;;;;0.20;0.10;;;;;;;;;;6145507;22;20456;-86
2022/08/07 10:08:18;;;;;;;0.20;0.10;;;;;;;;;;6276537;22;20516;-87
2022/08/07 10:10:56;;;;;;;0.20;0.10;;;;;;;;;;6146902;22;20512;-86
2022/08/07 10:13:41;;;;;;;0.20;0.10;;;;;;;;;;6146455;22;20086;-85
2022/08/07 10:16:11;;;;;;;0.20;0.10;;;;;;;;;;6148897;22;20066;-87
2022/08/07 10:18:40;;;;;;;0.20;0.10;;;;;;;;;;6279845;22;20013;-88
2022/08/07 10:21:20;;;;;;;0.20;0.10;;;;;;;;;;6276822;22;20071;-85
2022/08/07 10:24:05;;;;;;;0.20;0.10;;;;;;;;;;6141496;22;20032;-83
2022/08/07 10:26:31;;;;;;;0.20;0.10;;;;;;;;;;6144202;23;20016;-88
2022/08/07 10:28:57;;;;;;;0.20;0.10;;;;;;;;;;6145842;22;20032;-85
2022/08/07 10:31:28;;;;;;;0.20;0.10;;;;;;;;;;6144945;22;20032;-86
2022/08/07 10:34:17;;;;;;;0.20;0.10;;;;;;;;;;6146614;22;20052;-90
2022/08/07 10:36:52;;;;;;;0.20;0.10;;;;;;;;;;6168669;23;20091;-86
2022/08/07 10:39:30;;;;;;;0.20;0.10;;;;;;;;;;6277501;22;20013;-85
2022/08/07 10:42:02;;;;;;;0.20;0.10;;;;;;;;;;6150461;22;20074;-87
2022/08/07 10:44:37;;;;;;;;;;;;;;;;;;6150858;23;20100;-86
2022/08/07 10:47:09;;;;;;;0.20;0.10;;;;;;;;;;6303100;22;20293;-86
2022/08/07 10:49:39;;;;;;;0.20;0.10;;;;;;;;;;6150651;23;20461;-87
2022/08/07 10:52:15;;;;;;;0.20;0.10;;;;;;;;;;6149715;22;20028;-88
2022/08/07 10:54:58;;;;;;;0.20;0.10;;;;;;;;;;6148865;23;20013;-85
2022/08/07 10:57:37;;;;;;;0.20;0.10;;;;;;;;;;6143945;23;20035;-86
2022/08/07 11:00:11;;;;;;;0.20;0.10;;;;;;;;;;6146465;23;20017;-86
2022/08/07 11:02:50;;;;;;;0.20;0.10;;;;;;;;;;6145856;22;20017;-85
2022/08/07 11:06:06;;;;;;;;;;;;;;;;;;;;;
2022/08/07 11:08:57;;;;;;;0.20;0.10;;;;;;;;;;6143801;23;20078;-86
2022/08/07 11:11:32;;;;;;;0.20;0.10;;;;;;;;;;6146437;23;20021;-86
2022/08/07 11:14:17;;;;;;;0.20;0.10;;;;;;;;;;6142631;22;20353;-87
2022/08/07 11:17:07;;;;;;;0.20;0.10;;;;;;;;;;6143012;23;20013;-87
2022/08/07 11:19:48;;;;;;;0.20;0.10;;;;;;;;;;6143749;22;20051;-86
2022/08/07 11:22:52;;;;;;;0.20;0.10;;;;;;;;;;6274935;22;20021;-88
2022/08/07 11:25:47;;;;;;;;;;;;;;;;;;;;;
2022/08/07 11:28:59;;;;;;;0.20;0.10;;;;;;;;;;6181654;22;20084;-87
2022/08/07 11:35:04;;;;;;;0.20;0.10;;;;;;;;;;6171340;23;20067;-88
2022/08/07 11:37:36;;;;;;;0.20;0.10;;;;;;;;;;6148944;22;20035;-89
2022/08/07 11:40:24;;;;;;;0.20;0.10;;;;;;;;;;6149873;22;20032;-87
2022/08/07 11:49:28;;;;;;;0.20;0.10;;;;;;;;;;6169569;23;20055;-87
2022/08/07 11:52:13;;;;;;;0.20;0.10;;;;;;;;;;6143209;23;20769;-83
2022/08/07 12:04:18;;;;;;;;;;;;;;;;;;;;;
2022/08/07 12:10:08;;;;;;;0.20;0.10;;;;;;;;;;6335087;22;20018;-84
2022/08/07 12:15:34;;;;;;;0.35;0.17;;;;;;;;;;6356104;22;20032;-81
2022/08/07 12:18:22;;;;;;;0.20;0.10;;;;;;;;;;6333512;22;20100;-83
2022/08/07 12:24:09;;;;;;;0.20;0.10;;;;;;;;;;6160408;23;20029;-83
2022/08/07 12:27:21;;;;;;;0.20;0.10;;;;;;;;;;6125874;23;20473;-84
2022/08/07 12:30:01;;;;;;;0.20;0.10;;;;;;;;;;6116849;23;20027;-85
2022/08/07 12:32:38;;;;;;;0.20;0.10;;;;;;;;;;6146061;23;20017;-84
2022/08/07 12:38:35;;;;;;;0.20;0.10;;;;;;;;;;6137803;23;20017;-87
2022/08/07 12:41:53;;;;;;;0.20;0.10;;;;;;;;;;6216946;22;20079;-87
2022/08/07 12:48:10;;;;;;;0.20;0.10;;;;;;;;;;6215356;23;20020;-86
2022/08/07 12:50:57;;;;;;;0.20;0.10;;;;;;;;;;6114915;23;20022;-85
2022/08/07 12:53:57;;;;;;;0.20;0.10;;;;;;;;;;6072171;23;20604;-83
2022/08/07 13:00:02;;;;;;;0.20;0.10;;;;;;;;;;6138069;23;20013;-87
2022/08/07 13:03:06;;;;;;;;;;;;;;;;;;;;;
2022/08/07 13:09:34;;;;;;;0.20;0.10;;;;;;;;;;6168774;23;20021;-84
2022/08/07 13:13:01;;;;;;;;;;;;;;;;;;;;;
2022/08/07 13:30:15;;;;;;;0.20;0.10;;;;;;;;;;6199531;23;20035;-87
2022/08/07 13:33:00;;;;;;;0.20;0.10;;;;;;;;;;6148202;23;20021;-83
2022/08/07 13:38:55;;;;;;;0.20;0.10;;;;;;;;;;6189359;22;20028;-87
2022/08/07 13:41:29;;;;;;;0.20;0.10;;;;;;;;;;6176129;22;20453;-83
2022/08/07 13:44:02;;;;;;;0.20;0.10;;;;;;;;;;6170944;22;20017;-87
2022/08/07 13:46:40;;;;;;;0.20;0.10;;;;;;;;;;6175541;22;20615;-86
2022/08/07 13:49:16;;;;;;;0.20;0.10;;;;;;;;;;6174003;23;20044;-86
2022/08/07 13:51:42;;;;;;;0.20;0.10;;;;;;;;;;6148974;23;20610;-87
2022/08/07 13:54:17;;;;;;;0.20;0.10;;;;;;;;;;6253702;22;20048;-87
2022/08/07 13:56:45;;;;;;;0.20;0.10;;;;;;;;;;6254801;22;20017;-84
2022/08/07 13:59:24;;;;;;;0.20;0.10;;;;;;;;;;6201789;23;20017;-87
2022/08/07 14:01:54;;;;;;;0.20;0.10;;;;;;;;;;6174194;23;20070;-85
2022/08/07 14:04:31;;;;;;;0.20;0.10;;;;;;;;;;6148550;23;20111;-85
2022/08/07 14:06:58;;;;;;;0.20;0.10;;;;;;;;;;6171336;23;20048;-85
2022/08/07 14:09:33;;;;;;;0.20;0.10;;;;;;;;;;6148669;23;20461;-88
2022/08/07 14:12:05;;;;;;;0.20;0.10;;;;;;;;;;6253658;22;20096;-86
2022/08/07 14:15:07;;;;;;;0.20;0.10;;;;;;;;;;6146883;22;20655;-86
2022/08/07 14:17:39;;;;;;;0.20;0.10;;;;;;;;;;6148717;23;20020;-84
2022/08/07 14:20:08;;;;;;;0.20;0.10;;;;;;;;;;6149253;23;20008;-83
2022/08/07 14:22:37;;;;;;;0.20;0.10;;;;;;;;;;6149354;23;20027;-83
2022/08/07 14:25:13;;;;;;;0.20;0.10;;;;;;;;;;6169101;23;20019;-85
2022/08/07 14:27:42;;;;;;;0.20;0.10;;;;;;;;;;6141638;23;20027;-83
2022/08/07 14:30:11;;;;;;;0.20;0.10;;;;;;;;;;6149864;23;20020;-85
2022/08/07 14:32:44;;;;;;;0.20;0.10;;;;;;;;;;6149906;23;20020;-86
2022/08/07 14:35:15;;;;;;;0.20;0.10;;;;;;;;;;6176134;23;20038;-88
2022/08/07 14:37:43;;;;;;;0.20;0.10;;;;;;;;;;6150102;22;20017;-84
2022/08/07 14:40:13;;;;;;;0.20;0.10;;;;;;;;;;6151333;23;20012;-86
2022/08/07 14:42:42;;;;;;;0.20;0.10;;;;;;;;;;6150947;23;20059;-87
2022/08/07 14:45:11;;;;;;;0.20;0.10;;;;;;;;;;6151731;23;20025;-85
2022/08/07 14:47:38;;;;;;;0.20;0.10;;;;;;;;;;6256050;22;20342;-85
2022/08/07 14:50:06;;;;;;;0.20;0.10;;;;;;;;;;6151443;23;20020;-86
2022/08/07 14:52:32;;;;;;;0.20;0.10;;;;;;;;;;6151355;23;20452;-84
2022/08/07 14:55:00;;;;;;;0.20;0.10;;;;;;;;;;6175371;23;20631;-86
2022/08/07 14:57:27;;;;;;;0.20;0.10;;;;;;;;;;6200773;23;20024;-84
2022/08/07 14:59:55;;;;;;;0.20;0.10;;;;;;;;;;6255664;22;20497;-84
2022/08/07 15:02:23;;;;;;;0.20;0.10;;;;;;;;;;6151049;23;20356;-84
2022/08/07 15:04:50;;;;;;;0.20;0.10;;;;;;;;;;6151859;23;20052;-87
2022/08/07 15:07:17;;;;;;;0.20;0.10;;;;;;;;;;6151552;23;20032;-84
2022/08/07 15:09:46;;;;;;;0.20;0.10;;;;;;;;;;6176899;23;20012;-84
2022/08/07 15:12:14;;;;;;;0.20;0.10;;;;;;;;;;6176266;23;20092;-85
2022/08/07 15:14:47;;;;;;;0.20;0.10;;;;;;;;;;6151326;23;20629;-88
2022/08/07 15:17:15;;;;;;;0.20;0.10;;;;;;;;;;6176928;23;20198;-85
2022/08/07 15:19:49;;;;;;;0.20;0.10;;;;;;;;;;6152104;23;20019;-84
2022/08/07 15:22:16;;;;;;;0.20;0.10;;;;;;;;;;6202841;23;20012;-86
2022/08/07 15:24:46;;;;;;;0.20;0.10;;;;;;;;;;6152158;23;20020;-85
2022/08/07 15:27:21;;;;;;;0.20;0.10;;;;;;;;;;6152215;23;20055;-87
2022/08/07 15:29:55;;;;;;;0.20;0.10;;;;;;;;;;6152019;22;20013;-83
2022/08/07 15:32:22;;;;;;;0.20;0.10;;;;;;;;;;6152346;23;20334;-82
2022/08/07 15:34:51;;;;;;;0.20;0.10;;;;;;;;;;6202993;23;20020;-85
2022/08/07 15:37:19;;;;;;;0.20;0.10;;;;;;;;;;6176515;22;20088;-85
2022/08/07 15:39:53;;;;;;;0.20;0.10;;;;;;;;;;6200757;23;20020;-83
2022/08/07 15:42:35;;;;;;;0.20;0.10;;;;;;;;;;6151680;23;20064;-85
2022/08/07 15:45:03;;;;;;;0.40;0.30;;;;;;;;;;6151092;23;20020;-84
2022/08/07 15:47:33;;;;;;;0.20;0.10;;;;;;;;;;6151056;23;20274;-84
2022/08/07 15:50:02;;;;;;;0.20;0.10;;;;;;;;;;6151890;23;20463;-88
2022/08/07 15:52:29;;;;;;;0.20;0.10;;;;;;;;;;6149612;23;20017;-87
2022/08/07 15:54:59;;;;;;;0.20;0.10;;;;;;;;;;6151949;23;20016;-86
2022/08/07 15:57:28;;;;;;;0.20;0.10;;;;;;;;;;6151460;23;20009;-84
2022/08/07 15:59:59;;;;;;;0.20;0.10;;;;;;;;;;6175573;23;20044;-86
2022/08/07 16:02:33;;;;;;;0.20;0.10;;;;;;;;;;6150518;23;20418;-83
2022/08/07 16:05:02;;;;;;;0.20;0.10;;;;;;;;;;6199798;23;20099;-83
2022/08/07 16:07:30;;;;;;;0.20;0.10;;;;;;;;;;6149923;23;20361;-85
2022/08/07 16:10:05;;;;;;;0.20;0.10;;;;;;;;;;6199525;23;20077;-84
2022/08/07 16:12:41;;;;;;;0.20;0.10;;;;;;;;;;6178429;23;20087;-83
2022/08/07 16:15:28;;;;;;;0.20;0.10;;;;;;;;;;6150375;23;20016;-84
2022/08/07 16:17:54;;;;;;;0.20;0.10;;;;;;;;;;6175137;23;20055;-82
2022/08/07 16:20:26;;;;;;;0.20;0.10;;;;;;;;;;6152229;23;20099;-83
2022/08/07 16:22:56;;;;;;;0.20;0.10;;;;;;;;;;6200997;23;20013;-85
2022/08/07 16:25:41;;;;;;;0.20;0.10;;;;;;;;;;6176335;23;20009;-82
2022/08/07 16:28:26;;;;;;;0.20;0.10;;;;;;;;;;6200312;23;20141;-84
2022/08/07 16:30:59;;;;;;;0.20;0.10;;;;;;;;;;6151195;23;20012;-85
2022/08/07 16:33:26;;;;;;;0.20;0.10;;;;;;;;;;6201152;23;20061;-83
2022/08/07 16:36:14;;;;;;;0.20;0.10;;;;;;;;;;6152140;23;20441;-84
2022/08/07 16:38:46;;;;;;;0.20;0.10;;;;;;;;;;6200945;22;20017;-88
2022/08/07 16:41:31;;;;;;;0.20;0.10;;;;;;;;;;6151058;23;20013;-84
2022/08/07 16:44:09;;;;;;;0.20;0.10;;;;;;;;;;6200611;23;20027;-86
2022/08/07 16:46:48;;;;;;;0.20;0.10;;;;;;;;;;6151716;23;20023;-87
2022/08/07 16:49:29;;;;;;;0.20;0.10;;;;;;;;;;6149950;23;20020;-87
2022/08/07 16:52:13;;;;;;;0.20;0.10;;;;;;;;;;6199784;23;20076;-83
2022/08/07 16:54:48;;;;;;;0.20;0.10;;;;;;;;;;6175827;23;20013;-86
2022/08/07 16:57:14;;;;;;;0.20;0.10;;;;;;;;;;6200164;23;20016;-84
2022/08/07 16:59:50;;;;;;;0.20;0.10;;;;;;;;;;6200443;23;20104;-84
2022/08/07 17:02:16;;;;;;;0.20;0.10;;;;;;;;;;6199877;23;20396;-83
2022/08/07 17:05:01;;;;;;;0.20;0.10;;;;;;;;;;6201093;23;20126;-84
2022/08/07 17:07:44;;;;;;;0.20;0.10;;;;;;;;;;6201364;23;20016;-84
2022/08/07 17:10:21;;;;;;;0.20;0.10;;;;;;;;;;6202627;22;20024;-84
2022/08/07 17:13:08;;;;;;;0.20;0.10;;;;;;;;;;6151917;23;20012;-84
2022/08/07 17:15:48;;;;;;;0.20;0.10;;;;;;;;;;6177278;23;20009;-85
2022/08/07 17:18:15;;;;;;;0.20;0.10;;;;;;;;;;6154086;23;20012;-86
2022/08/07 17:20:44;;;;;;;0.20;0.10;;;;;;;;;;6154455;23;20024;-84
2022/08/07 17:23:17;;;;;;;0.20;0.10;;;;;;;;;;6155236;23;20238;-85
2022/08/07 17:26:02;;;;;;;0.20;0.10;;;;;;;;;;6154135;23;20016;-84
2022/08/07 17:28:33;;;;;;;0.20;0.10;;;;;;;;;;6204859;23;20734;-84
2022/08/07 17:31:13;;;;;;;0.20;0.10;;;;;;;;;;6155606;23;20040;-85
2022/08/07 17:33:44;;;;;;;0.20;0.10;;;;;;;;;;6207716;23;20013;-84
2022/08/07 17:36:12;;;;;;;0.20;0.10;;;;;;;;;;6205042;23;20091;-83
2022/08/07 17:38:49;;;;;;;0.20;0.10;;;;;;;;;;6204437;22;20583;-85
2022/08/07 17:41:29;;;;;;;0.20;0.10;;;;;;;;;;6181184;23;20052;-83
2022/08/07 17:43:59;;;;;;;0.20;0.10;;;;;;;;;;6162601;23;20020;-85
2022/08/07 17:46:33;;;;;;;0.20;0.10;;;;;;;;;;6155273;23;20456;-85
2022/08/07 17:49:19;;;;;;;0.20;0.10;;;;;;;;;;6150721;23;20059;-85
2022/08/07 17:51:49;;;;;;;0.20;0.10;;;;;;;;;;6150612;23;20019;-84
2022/08/07 17:54:28;;;;;;;0.20;0.10;;;;;;;;;;6176631;23;20016;-84
2022/08/07 17:56:58;;;;;;;0.20;0.10;;;;;;;;;;6151983;23;20019;-85
2022/08/07 17:59:43;;;;;;;0.20;0.10;;;;;;;;;;6201341;23;20016;-84
2022/08/07 18:02:14;;;;;;;0.20;0.00;;;;;;;;;;6200744;23;20052;-84
2022/08/07 18:04:40;;;;;;;0.20;0.10;;;;;;;;;;6176754;23;20020;-85
2022/08/07 18:07:06;;;;;;;0.20;0.10;;;;;;;;;;6201017;23;20016;-86
2022/08/07 18:09:34;;;;;;;0.20;0.10;;;;;;;;;;6152020;23;20494;-85
2022/08/07 18:12:07;;;;;;;0.20;0.10;;;;;;;;;;6151984;23;20100;-86
2022/08/07 18:14:38;;;;;;;0.20;0.10;;;;;;;;;;6199230;23;20019;-84
2022/08/07 18:17:23;;;;;;;0.20;0.10;;;;;;;;;;6176319;22;20009;-83
2022/08/07 18:19:56;;;;;;;0.20;0.10;;;;;;;;;;6200251;23;20015;-87
2022/08/07 18:22:35;;;;;;;0.20;0.10;;;;;;;;;;6150883;23;20095;-84
2022/08/07 18:25:03;;;;;;;0.20;0.10;;;;;;;;;;6200189;23;20101;-84
2022/08/07 18:27:38;;;;;;;0.20;0.10;;;;;;;;;;6149829;23;20092;-84
2022/08/07 18:30:05;;;;;;;0.20;0.10;;;;;;;;;;6150531;23;20086;-86
2022/08/07 18:32:50;;;;;;;0.20;0.10;;;;;;;;;;6150242;23;20086;-86
2022/08/07 18:35:28;;;;;;;0.20;0.10;;;;;;;;;;6200147;23;20017;-84
2022/08/07 18:38:13;;;;;;;0.20;0.10;;;;;;;;;;6151700;23;20012;-84
2022/08/07 18:40:42;;;;;;;0.20;0.10;;;;;;;;;;6201068;23;20035;-84
2022/08/07 18:43:13;;;;;;;0.20;0.10;;;;;;;;;;6152595;23;20023;-84
2022/08/07 18:45:39;;;;;;;0.20;0.10;;;;;;;;;;6152701;23;20024;-85
2022/08/07 18:48:09;;;;;;;0.20;0.10;;;;;;;;;;6201766;23;20131;-85
2022/08/07 18:50:48;;;;;;;0.20;0.10;;;;;;;;;;6150902;23;20020;-85
2022/08/07 18:53:20;;;;;;;0.20;0.10;;;;;;;;;;6175409;23;20531;-84
2022/08/07 18:55:46;;;;;;;;;;;;;;;;;;6203076;23;20095;-85
2022/08/07 18:58:21;;;;;;;0.20;0.10;;;;;;;;;;6176316;23;20370;-86
2022/08/07 19:01:06;;;;;;;0.20;0.10;;;;;;;;;;6151738;23;20298;-84
2022/08/07 19:03:44;;;;;;;0.20;0.10;;;;;;;;;;6150801;23;20009;-84
2022/08/07 19:06:15;;;;;;;0.20;0.10;;;;;;;;;;6201190;23;20012;-83
2022/08/07 19:08:41;;;;;;;0.20;0.10;;;;;;;;;;6175990;23;20086;-84
2022/08/07 19:11:10;;;;;;;0.20;0.10;;;;;;;;;;6151814;23;20020;-82
2022/08/07 19:13:45;;;;;;;0.20;0.10;;;;;;;;;;6177025;23;20013;-83
2022/08/07 19:16:11;;;;;;;0.20;0.10;;;;;;;;;;6153272;23;20012;-83
2022/08/07 19:18:44;;;;;;;0.20;0.10;;;;;;;;;;6152285;23;20017;-84
2022/08/07 19:21:27;;;;;;;0.20;0.10;;;;;;;;;;6150560;23;20044;-85
2022/08/07 19:23:55;;;;;;;0.20;0.10;;;;;;;;;;6151711;23;20469;-83
2022/08/07 19:26:23;;;;;;;0.20;0.10;;;;;;;;;;6151704;23;20028;-84
2022/08/07 19:28:52;;;;;;;0.20;0.10;;;;;;;;;;6152451;23;20016;-84
2022/08/07 19:31:22;;;;;;;0.20;0.10;;;;;;;;;;6176871;23;20490;-84
2022/08/07 19:33:49;;;;;;;0.20;0.10;;;;;;;;;;6153637;23;20013;-83
2022/08/07 19:36:17;;;;;;;0.20;0.10;;;;;;;;;;6202277;23;20012;-84
2022/08/07 19:42:07;;;;;;;0.20;0.10;;;;;;;;;;6167027;23;20024;-86
2022/08/07 19:44:39;;;;;;;0.20;0.10;;;;;;;;;;6308291;22;20051;-86